createdAt,value
2018-07-27T00:03:44.630Z,25.90
2018-07-27T00:09:48.450Z,25.90
2018-07-27T00:15:52.078Z,25.80
2018-07-27T00:21:55.971Z,25.80
2018-07-27T00:28:00.291Z,25.70
2018-07-27T00:34:03.843Z,25.70
2018-07-27T00:40:07.129Z,25.60
2018-07-27T00:46:10.986Z,25.50
2018-07-27T00:52:14.747Z,25.40
2018-07-27T00:58:18.284Z,25.30
2018-07-27T01:04:21.853Z,25.20
2018-07-27T01:10:25.994Z,25.10
2018-07-27T01:16:30.375Z,25.00
2018-07-27T01:22:34.321Z,24.90
2018-07-27T01:28:37.740Z,24.90
2018-07-27T01:34:41.162Z,24.90
2018-07-27T01:40:44.651Z,24.80
2018-07-27T01:46:48.790Z,24.30
2018-07-27T01:52:52.222Z,24.00
2018-07-27T01:58:55.700Z,23.90
2018-07-27T02:05:00.319Z,23.80
2018-07-27T02:11:03.948Z,23.70
2018-07-27T02:17:07.481Z,23.70
2018-07-27T02:23:11.014Z,23.60
2018-07-27T02:29:14.329Z,23.60
2018-07-27T02:35:17.851Z,23.50
2018-07-27T02:41:21.322Z,23.40
2018-07-27T02:47:24.849Z,23.20
2018-07-27T02:53:28.310Z,23.10
2018-07-27T02:59:31.723Z,23.10
2018-07-27T03:05:35.182Z,23.00
2018-07-27T03:11:38.993Z,22.80
2018-07-27T03:17:42.397Z,22.70
2018-07-27T03:23:46.023Z,22.50
2018-07-27T03:29:49.649Z,22.30
2018-07-27T03:35:53.490Z,22.00
2018-07-27T03:41:57.288Z,21.70
2018-07-27T03:48:05.259Z,21.40
2018-07-27T03:54:08.941Z,21.20
2018-07-27T04:00:13.591Z,21.00
2018-07-27T04:06:17.982Z,21.00
2018-07-27T04:12:23.727Z,21.00
2018-07-27T04:18:27.958Z,21.00
2018-07-27T04:24:32.290Z,21.00
2018-07-27T04:30:36.320Z,21.00
2018-07-27T04:36:40.491Z,21.00
2018-07-27T04:42:44.542Z,21.00
2018-07-27T04:48:48.262Z,21.00
2018-07-27T04:54:51.753Z,21.20
2018-07-27T05:00:56.121Z,21.30
2018-07-27T05:06:59.656Z,21.50
2018-07-27T05:13:03.166Z,21.60
2018-07-27T05:19:06.583Z,21.70
2018-07-27T05:25:10.377Z,21.80
2018-07-27T05:31:13.889Z,22.00
2018-07-27T05:37:17.853Z,22.20
2018-07-27T05:43:21.764Z,22.40
2018-07-27T05:49:25.557Z,22.60
2018-07-27T05:55:29.684Z,22.90
2018-07-27T06:01:33.172Z,23.10
2018-07-27T06:07:37.167Z,23.40
2018-07-27T06:13:40.877Z,23.60
2018-07-27T06:19:44.214Z,23.90
2018-07-27T06:25:51.600Z,24.20
2018-07-27T06:31:55.945Z,24.50
2018-07-27T06:37:59.797Z,24.80
2018-07-27T06:44:03.205Z,25.10
2018-07-27T06:50:07.446Z,25.50
2018-07-27T06:56:11.190Z,25.80
2018-07-27T07:02:15.113Z,26.20
2018-07-27T07:08:18.688Z,26.50
2018-07-27T07:14:22.140Z,26.90
2018-07-27T07:20:25.831Z,27.20
2018-07-27T07:26:29.218Z,27.40
2018-07-27T07:32:32.426Z,27.70
2018-07-27T07:38:36.118Z,28.00
2018-07-27T07:44:39.718Z,28.30
2018-07-27T07:50:43.337Z,28.60
2018-07-27T07:56:46.700Z,28.80
2018-07-27T08:02:50.090Z,29.20
2018-07-27T08:08:54.074Z,29.40
2018-07-27T08:14:58.481Z,29.60
2018-07-27T08:21:02.494Z,29.70
2018-07-27T08:27:06.766Z,30.00
2018-07-27T08:33:10.782Z,30.20
2018-07-27T08:39:16.674Z,30.30
2018-07-27T08:45:20.336Z,30.50
2018-07-27T08:51:23.707Z,30.60
2018-07-27T08:57:27.557Z,30.70
2018-07-27T09:03:31.953Z,30.80
2018-07-27T09:09:35.369Z,31.00
2018-07-27T09:15:39.433Z,31.10
2018-07-27T09:21:43.559Z,31.30
2018-07-27T09:27:47.036Z,31.40
2018-07-27T09:33:51.200Z,31.60
2018-07-27T09:39:54.976Z,31.80
2018-07-27T09:45:58.555Z,31.90
2018-07-27T09:52:01.871Z,32.00
2018-07-27T09:58:05.654Z,32.10
2018-07-27T10:04:09.102Z,32.10
2018-07-27T10:10:12.483Z,32.30
2018-07-27T10:16:16.050Z,32.50
2018-07-27T10:22:19.905Z,32.50
2018-07-27T10:28:23.606Z,32.60
2018-07-27T10:34:27.785Z,32.80
2018-07-27T10:40:32.053Z,32.90
2018-07-27T10:46:35.805Z,33.00
2018-07-27T10:52:39.299Z,33.10
2018-07-27T10:58:42.712Z,33.30
2018-07-27T11:04:46.464Z,33.40
2018-07-27T11:10:50.053Z,33.40
2018-07-27T11:16:53.581Z,33.50
2018-07-27T11:22:57.072Z,33.70
2018-07-27T11:29:00.508Z,33.70
2018-07-27T11:35:04.629Z,33.90
2018-07-27T11:41:08.240Z,34.10
2018-07-27T11:47:11.978Z,34.00
2018-07-27T11:53:15.409Z,34.30
2018-07-27T11:59:18.951Z,34.40
2018-07-27T12:05:23.641Z,34.60
2018-07-27T12:11:28.265Z,34.70
2018-07-27T12:17:31.694Z,34.80
2018-07-27T12:23:35.675Z,34.90
2018-07-27T12:29:39.050Z,35.00
2018-07-27T12:35:42.767Z,35.10
2018-07-27T12:41:46.087Z,35.20
2018-07-27T12:47:50.414Z,35.40
2018-07-27T12:53:53.727Z,35.40
2018-07-27T12:59:57.025Z,35.50
2018-07-27T13:06:00.527Z,35.60
2018-07-27T13:12:03.932Z,35.70
2018-07-27T13:18:07.445Z,35.80
2018-07-27T13:24:10.973Z,35.80
2018-07-27T13:30:14.746Z,36.00
2018-07-27T13:36:18.167Z,36.00
2018-07-27T13:42:23.783Z,36.00
2018-07-27T13:48:27.097Z,36.10
2018-07-27T13:54:31.638Z,36.20
2018-07-27T14:00:35.772Z,36.20
2018-07-27T14:06:39.081Z,36.30
2018-07-27T14:12:42.520Z,36.30
2018-07-27T14:18:46.127Z,36.50
2018-07-27T14:24:49.697Z,36.50
2018-07-27T14:30:53.545Z,36.80
2018-07-27T14:36:58.124Z,37.20
2018-07-27T14:43:01.849Z,37.60
2018-07-27T14:49:09.463Z,37.90
2018-07-27T14:55:12.905Z,38.30
2018-07-27T15:01:16.105Z,38.40
2018-07-27T15:07:20.071Z,38.60
2018-07-27T15:13:23.733Z,38.80
2018-07-27T15:19:27.082Z,38.90
2018-07-27T15:25:30.910Z,39.00
2018-07-27T15:31:34.609Z,39.20
2018-07-27T15:37:38.113Z,39.20
2018-07-27T15:43:42.070Z,39.30
2018-07-27T15:49:53.899Z,39.10
2018-07-27T15:56:00.640Z,39.20
2018-07-27T16:02:05.673Z,39.20
2018-07-27T16:08:08.990Z,39.30
2018-07-27T16:14:12.448Z,39.20
2018-07-27T16:20:16.023Z,39.30
2018-07-27T16:26:19.889Z,39.20
2018-07-27T16:32:23.788Z,39.20
2018-07-27T16:38:27.640Z,39.30
2018-07-27T16:44:31.352Z,39.20
2018-07-27T16:50:35.549Z,39.30
2018-07-27T16:56:39.227Z,39.30
2018-07-27T17:02:42.668Z,38.90
2018-07-27T17:08:46.290Z,38.10
2018-07-27T17:14:49.968Z,37.60
2018-07-27T17:20:53.351Z,37.20
2018-07-27T17:26:56.759Z,36.80
2018-07-27T17:33:00.318Z,36.40
2018-07-27T17:39:06.065Z,36.10
2018-07-27T17:45:10.156Z,35.80
2018-07-27T17:51:13.661Z,35.70
2018-07-27T17:57:17.374Z,35.50
2018-07-27T18:03:21.936Z,35.20
2018-07-27T18:09:25.410Z,35.00
2018-07-27T18:15:28.982Z,34.80
2018-07-27T18:21:32.396Z,34.60
2018-07-27T18:27:36.226Z,34.40
2018-07-27T18:33:40.025Z,34.20
2018-07-27T18:39:44.341Z,34.00
2018-07-27T18:45:47.903Z,33.80
2018-07-27T18:51:58.519Z,33.60
2018-07-27T18:58:07.315Z,33.40
2018-07-27T19:04:11.094Z,33.20
2018-07-27T19:10:14.629Z,32.90
2018-07-27T19:16:18.248Z,32.70
2018-07-27T19:22:21.803Z,32.50
2018-07-27T19:28:25.386Z,32.20
2018-07-27T19:34:36.363Z,32.00
2018-07-27T19:40:39.923Z,31.80
2018-07-27T19:46:43.470Z,31.60
2018-07-27T19:52:47.094Z,31.50
2018-07-27T19:58:50.720Z,31.30
2018-07-27T20:04:55.000Z,31.10
2018-07-27T20:10:58.517Z,31.00
2018-07-27T20:17:02.284Z,30.90
2018-07-27T20:23:05.794Z,30.70
2018-07-27T20:29:09.363Z,30.60
2018-07-27T20:35:12.972Z,30.40
2018-07-27T20:41:16.381Z,30.30
2018-07-27T20:47:20.542Z,30.10
2018-07-27T20:53:24.373Z,30.00
2018-07-27T20:59:28.570Z,29.80
2018-07-27T21:05:32.992Z,29.60
2018-07-27T21:11:36.854Z,29.40
2018-07-27T21:17:41.518Z,29.00
2018-07-27T21:23:50.868Z,28.80
2018-07-27T21:30:01.560Z,28.50
2018-07-27T21:36:05.137Z,28.30
2018-07-27T21:42:08.550Z,28.10
2018-07-27T21:48:12.095Z,27.70
2018-07-27T21:54:16.185Z,27.50
2018-07-27T22:00:19.642Z,27.40
2018-07-27T22:06:23.635Z,27.40
2018-07-27T22:12:27.640Z,27.40
2018-07-27T22:18:31.264Z,27.30
2018-07-27T22:24:34.660Z,27.30
2018-07-27T22:30:38.643Z,27.40
2018-07-27T22:36:42.244Z,27.50
2018-07-27T22:42:45.811Z,27.60
2018-07-27T22:48:49.594Z,27.60
2018-07-27T22:54:53.047Z,27.60
2018-07-27T23:00:56.423Z,27.60
2018-07-27T23:07:00.424Z,27.60
2018-07-27T23:13:04.549Z,27.60
2018-07-27T23:19:08.217Z,27.60
2018-07-27T23:25:11.909Z,27.60
2018-07-27T23:31:15.250Z,27.60
2018-07-27T23:37:18.754Z,27.50
2018-07-27T23:43:21.929Z,27.50
2018-07-27T23:49:25.899Z,27.50
2018-07-27T23:55:29.340Z,27.50
